Am 6. und 7. September findet auf unserem Flugplatz ein Hock statt, zu dem wir Sie gerne einladen.

Wir feiern an diesem Tag auch die Aufwertung unseres Flugplatzes zum Sonderlandeplatz mit der Kennung EDSO.

Neben Essen und Trinken, haben Sie die Gelegenheit sich über unseren Sport näher zu informieren.

 

 

 

 

WebCam

  
Kamera Halle
Kamera Vorfeld
Wetter EDDS

METAR

EDDS 260520Z VRB01KT CAVOK 23/19 Q1023 NOSIG =
EDDS 260500Z 2606/2706 20003KT CAVOK BECMG 2609/2611 01006KT BECMG 2619/2621 20003KT BECMG 2623/2701 33006KT


TAF

EDDS 260500Z 2606/2706 20003KT CAVOK BECMG 2609/2611 01006KT BECMG 2619/2621 20003KT BECMG 2623/2701 33006KT =


SR/SS

03:20 / 19:28 UTC
(EDSO 26-06-2019)